createdAt,value
2024-04-18T00:00:03.464Z,92024.00
2024-04-18T00:01:02.917Z,92025.00
2024-04-18T00:02:02.852Z,92025.00
2024-04-18T00:03:02.912Z,92024.00
2024-04-18T00:04:03.164Z,92024.00
2024-04-18T00:05:03.217Z,92023.00
2024-04-18T00:06:03.155Z,92023.00
2024-04-18T00:07:03.226Z,92021.00
2024-04-18T00:08:03.325Z,92019.00
2024-04-18T00:09:03.403Z,92018.00
2024-04-18T00:10:03.555Z,92018.00
2024-04-18T00:11:03.576Z,92017.00
2024-04-18T00:12:03.648Z,92019.00
2024-04-18T00:13:03.726Z,92017.00
2024-04-18T00:14:03.966Z,92018.00
2024-04-18T00:15:03.893Z,92017.00
2024-04-18T00:16:03.980Z,92019.00
2024-04-18T00:17:04.079Z,92017.00
2024-04-18T00:18:04.257Z,92019.00
2024-04-18T00:19:04.235Z,92020.00
2024-04-18T00:20:04.303Z,92021.00
2024-04-18T00:21:04.398Z,92021.00
2024-04-18T00:22:04.664Z,92019.00
2024-04-18T00:23:05.467Z,92018.00
2024-04-18T00:24:04.637Z,92018.00
2024-04-18T00:25:04.731Z,92017.00
2024-04-18T00:26:04.817Z,92017.00
2024-04-18T00:27:04.906Z,92020.00
2024-04-18T00:28:04.992Z,92019.00
2024-04-18T00:29:05.071Z,92021.00
2024-04-18T00:30:05.167Z,92021.00
2024-04-18T00:31:05.261Z,92021.00
2024-04-18T00:32:05.411Z,92022.00
2024-04-18T00:33:05.480Z,92021.00
2024-04-18T00:34:05.569Z,92021.00
2024-04-18T00:35:05.600Z,92023.00
2024-04-18T00:36:05.690Z,92022.00
2024-04-18T00:37:05.799Z,92023.00
2024-04-18T00:38:05.870Z,92021.00
2024-04-18T00:39:05.967Z,92020.00
2024-04-18T00:40:06.068Z,92020.00
2024-04-18T00:41:06.152Z,92022.00
2024-04-18T00:42:06.243Z,92018.00
2024-04-18T00:43:06.333Z,92018.00
2024-04-18T00:44:06.418Z,92018.00
2024-04-18T00:45:06.518Z,92018.00
2024-04-18T00:46:06.607Z,92018.00
2024-04-18T00:47:06.707Z,92020.00
2024-04-18T00:48:06.944Z,92020.00
2024-04-18T00:49:06.901Z,92019.00
2024-04-18T00:50:06.948Z,92017.00
2024-04-18T00:51:07.048Z,92019.00
2024-04-18T00:52:07.133Z,92017.00
2024-04-18T00:53:07.232Z,92017.00
2024-04-18T00:54:07.320Z,92016.00
2024-04-18T00:55:07.411Z,92015.00
2024-04-18T00:56:07.498Z,92015.00
2024-04-18T00:57:07.635Z,92012.00
2024-04-18T00:58:07.689Z,92010.00
2024-04-18T00:59:07.768Z,92009.00
2024-04-18T01:00:07.890Z,92012.00
2024-04-18T01:01:08.030Z,92011.00
2024-04-18T01:02:08.023Z,92010.00
2024-04-18T01:03:08.118Z,92009.00
2024-04-18T01:04:08.327Z,92011.00
2024-04-18T01:05:08.355Z,92008.00
2024-04-18T01:06:08.414Z,92010.00
2024-04-18T01:07:08.526Z,92008.00
2024-04-18T01:08:08.542Z,92008.00
2024-04-18T01:09:08.639Z,92008.00
2024-04-18T01:10:08.729Z,92005.00
2024-04-18T01:11:08.811Z,92007.00
2024-04-18T01:12:08.906Z,92004.00
2024-04-18T01:13:08.999Z,92003.00
2024-04-18T01:14:09.101Z,92004.00
2024-04-18T01:15:09.175Z,92006.00
2024-04-18T01:16:09.290Z,92001.00
2024-04-18T01:17:09.372Z,92001.00
2024-04-18T01:18:09.533Z,92001.00
2024-04-18T01:19:09.543Z,92001.00
2024-04-18T01:20:09.566Z,92001.00
2024-04-18T01:21:09.648Z,92001.00
2024-04-18T01:22:09.792Z,92004.00
2024-04-18T01:23:09.802Z,92003.00
2024-04-18T01:24:09.904Z,92006.00
2024-04-18T01:25:09.973Z,92009.00
2024-04-18T01:26:10.053Z,92011.00
2024-04-18T01:27:10.143Z,92009.00
2024-04-18T01:28:10.222Z,92010.00
2024-04-18T01:29:10.299Z,92012.00
2024-04-18T01:30:10.412Z,92012.00
2024-04-18T01:31:10.524Z,92012.00
2024-04-18T01:32:10.538Z,92011.00
2024-04-18T01:33:10.696Z,92011.00
2024-04-18T01:34:10.771Z,92013.00
2024-04-18T01:35:10.796Z,92013.00
2024-04-18T01:36:10.872Z,92012.00
2024-04-18T01:37:10.911Z,92013.00
2024-04-18T01:38:10.978Z,92014.00
2024-04-18T01:39:11.128Z,92013.00
2024-04-18T01:40:11.130Z,92013.00
2024-04-18T01:41:11.204Z,92013.00
2024-04-18T01:42:11.369Z,92012.00
2024-04-18T01:43:11.346Z,92013.00
2024-04-18T01:44:11.425Z,92012.00
2024-04-18T01:45:11.530Z,92013.00
2024-04-18T01:46:11.575Z,92012.00
2024-04-18T01:47:11.638Z,92012.00
2024-04-18T01:48:11.863Z,92011.00
2024-04-18T01:49:11.891Z,92012.00
2024-04-18T01:50:11.918Z,92012.00
2024-04-18T01:51:11.933Z,92012.00
2024-04-18T01:52:11.970Z,92012.00
2024-04-18T01:53:12.048Z,92013.00
2024-04-18T01:54:12.119Z,92013.00
2024-04-18T01:55:12.174Z,92015.00
2024-04-18T01:56:12.248Z,92016.00
2024-04-18T01:57:12.325Z,92015.00
2024-04-18T01:58:12.380Z,92018.00
2024-04-18T01:59:12.446Z,92019.00
2024-04-18T02:00:12.544Z,92019.00
2024-04-18T02:01:12.658Z,92020.00
2024-04-18T02:02:12.655Z,92018.00
2024-04-18T02:03:12.848Z,92020.00
2024-04-18T02:04:12.887Z,92020.00
2024-04-18T02:05:12.926Z,92019.00
2024-04-18T02:06:12.998Z,92018.00
2024-04-18T02:07:13.009Z,92020.00
2024-04-18T02:08:13.066Z,92020.00
2024-04-18T02:09:13.140Z,92019.00
2024-04-18T02:10:13.206Z,92020.00
2024-04-18T02:11:13.380Z,92022.00
2024-04-18T02:12:13.360Z,92022.00
2024-04-18T02:13:13.431Z,92025.00
2024-04-18T02:14:13.490Z,92024.00
2024-04-18T02:15:13.618Z,92025.00
2024-04-18T02:16:13.652Z,92026.00
2024-04-18T02:17:13.729Z,92022.00
2024-04-18T02:18:13.949Z,92027.00
2024-04-18T02:19:13.851Z,92027.00
2024-04-18T02:20:13.936Z,92029.00
2024-04-18T02:21:14.036Z,92028.00
2024-04-18T02:22:14.094Z,92027.00
2024-04-18T02:23:14.161Z,92029.00
2024-04-18T02:24:14.324Z,92032.00
2024-04-18T02:25:14.348Z,92031.00
2024-04-18T02:26:14.489Z,92035.00
2024-04-18T02:27:14.532Z,92034.00
2024-04-18T02:28:14.538Z,92033.00
2024-04-18T02:29:14.618Z,92034.00
2024-04-18T02:30:14.750Z,92034.00
2024-04-18T02:31:14.780Z,92036.00
2024-04-18T02:32:14.920Z,92034.00
2024-04-18T02:33:15.087Z,92036.00
2024-04-18T02:34:15.005Z,92035.00
2024-04-18T02:35:15.091Z,92035.00
2024-04-18T02:36:15.290Z,92036.00
2024-04-18T02:37:15.237Z,92036.00
2024-04-18T02:38:16.035Z,92037.00
2024-04-18T02:39:15.414Z,92038.00
2024-04-18T02:40:15.540Z,92039.00
2024-04-18T02:41:15.584Z,92040.00
2024-04-18T02:42:15.652Z,92039.00
2024-04-18T02:43:15.714Z,92041.00
2024-04-18T02:44:15.779Z,92043.00
2024-04-18T02:45:15.897Z,92041.00
2024-04-18T02:46:15.939Z,92043.00
2024-04-18T02:47:16.045Z,92043.00
2024-04-18T02:48:16.177Z,92045.00
2024-04-18T02:49:16.166Z,92046.00
2024-04-18T02:50:16.250Z,92047.00
2024-04-18T02:51:16.359Z,92047.00
2024-04-18T02:52:16.420Z,92050.00
2024-04-18T02:53:16.477Z,92051.00
2024-04-18T02:54:16.595Z,92051.00
2024-04-18T02:55:16.640Z,92050.00
2024-04-18T02:56:16.721Z,92052.00
2024-04-18T02:57:16.840Z,92052.00
2024-04-18T02:58:16.891Z,92049.00
2024-04-18T02:59:16.940Z,92048.00
2024-04-18T03:00:17.085Z,92047.00
2024-04-18T03:01:17.221Z,92047.00
2024-04-18T03:02:17.592Z,92047.00
2024-04-18T03:03:17.302Z,92047.00
2024-04-18T03:04:17.363Z,92047.00
2024-04-18T03:05:17.433Z,92046.00
2024-04-18T03:06:17.557Z,92047.00
2024-04-18T03:07:17.655Z,92047.00
2024-04-18T03:08:18.540Z,92049.00
2024-04-18T03:09:17.764Z,92047.00
2024-04-18T03:10:17.816Z,92049.00
2024-04-18T03:11:17.932Z,92048.00
2024-04-18T03:12:17.994Z,92048.00
2024-04-18T03:13:18.053Z,92049.00
2024-04-18T03:14:18.166Z,92049.00
2024-04-18T03:15:18.238Z,92049.00
2024-04-18T03:16:18.296Z,92048.00
2024-04-18T03:17:18.400Z,92051.00
2024-04-18T03:18:18.598Z,92050.00
2024-04-18T03:19:18.676Z,92051.00
2024-04-18T03:20:18.633Z,92051.00
2024-04-18T03:21:18.745Z,92048.00
2024-04-18T03:22:18.791Z,92049.00
2024-04-18T03:23:18.879Z,92049.00
2024-04-18T03:24:18.951Z,92049.00
2024-04-18T03:25:19.036Z,92048.00
2024-04-18T03:26:19.128Z,92046.00
2024-04-18T03:27:19.253Z,92047.00
2024-04-18T03:28:19.272Z,92048.00
2024-04-18T03:29:19.361Z,92048.00
2024-04-18T03:30:19.455Z,92048.00
2024-04-18T03:31:19.516Z,92049.00
2024-04-18T03:32:19.676Z,92046.00
2024-04-18T03:33:19.848Z,92048.00
2024-04-18T03:34:19.758Z,92049.00
2024-04-18T03:35:19.833Z,92048.00
2024-04-18T03:36:19.912Z,92049.00
2024-04-18T03:37:19.991Z,92046.00
2024-04-18T03:38:20.081Z,92047.00
2024-04-18T03:39:20.235Z,92048.00
2024-04-18T03:40:20.234Z,92045.00
2024-04-18T03:41:20.563Z,92046.00
2024-04-18T03:42:20.408Z,92051.00
2024-04-18T03:43:20.496Z,92047.00
2024-04-18T03:44:20.578Z,92050.00
2024-04-18T03:45:20.685Z,92052.00
2024-04-18T03:46:20.730Z,92052.00
2024-04-18T03:47:20.855Z,92052.00
2024-04-18T03:48:21.027Z,92052.00
2024-04-18T03:49:21.004Z,92054.00
2024-04-18T03:50:21.066Z,92053.00
2024-04-18T03:51:21.155Z,92056.00
2024-04-18T03:52:21.244Z,92055.00
2024-04-18T03:53:21.317Z,92054.00
2024-04-18T03:54:21.476Z,92057.00
2024-04-18T03:55:21.547Z,92059.00
2024-04-18T03:56:21.545Z,92060.00
2024-04-18T03:57:21.671Z,92060.00
2024-04-18T03:58:21.698Z,92060.00
2024-04-18T03:59:21.774Z,92060.00
2024-04-18T04:00:21.882Z,92060.00
2024-04-18T04:01:22.084Z,92062.00
2024-04-18T04:02:22.031Z,92063.00
2024-04-18T04:03:22.160Z,92064.00
2024-04-18T04:04:22.342Z,92065.00
2024-04-18T04:05:22.264Z,92066.00
2024-04-18T04:06:22.568Z,92066.00
2024-04-18T04:07:22.431Z,92067.00
2024-04-18T04:08:22.516Z,92065.00
2024-04-18T04:09:22.654Z,92066.00
2024-04-18T04:10:22.690Z,92069.00
2024-04-18T04:11:22.907Z,92068.00
2024-04-18T04:12:22.914Z,92068.00
2024-04-18T04:13:22.949Z,92069.00
2024-04-18T04:14:23.011Z,92071.00
2024-04-18T04:15:24.094Z,92069.00
2024-04-18T04:16:23.186Z,92071.00
2024-04-18T04:17:23.292Z,92071.00
2024-04-18T04:18:23.400Z,92070.00
2024-04-18T04:19:23.482Z,92071.00
2024-04-18T04:20:23.512Z,92072.00
2024-04-18T04:21:23.679Z,92072.00
2024-04-18T04:22:23.679Z,92072.00
2024-04-18T04:23:23.771Z,92071.00
2024-04-18T04:24:23.894Z,92073.00
2024-04-18T04:25:23.936Z,92073.00
2024-04-18T04:26:24.019Z,92073.00
2024-04-18T04:27:24.129Z,92075.00
2024-04-18T04:28:24.193Z,92073.00
2024-04-18T04:29:24.274Z,92074.00
2024-04-18T04:30:24.381Z,92075.00
2024-04-18T04:31:24.446Z,92077.00
2024-04-18T04:32:24.682Z,92077.00
2024-04-18T04:33:24.663Z,92077.00
2024-04-18T04:34:24.699Z,92080.00
2024-04-18T04:35:24.796Z,92079.00
2024-04-18T04:36:25.698Z,92078.00
2024-04-18T04:37:24.936Z,92081.00
2024-04-18T04:38:25.020Z,92081.00
2024-04-18T04:39:25.106Z,92081.00
2024-04-18T04:40:25.185Z,92082.00
2024-04-18T04:41:25.262Z,92083.00
2024-04-18T04:42:32.640Z,92085.00
2024-04-18T04:43:32.603Z,92085.00
2024-04-18T04:44:32.626Z,92084.00
2024-04-18T04:45:32.680Z,92087.00
2024-04-18T04:46:32.660Z,92087.00
2024-04-18T04:47:32.722Z,92088.00
2024-04-18T04:48:35.359Z,92089.00
2024-04-18T04:49:32.781Z,92088.00
2024-04-18T04:50:32.761Z,92089.00
2024-04-18T04:51:32.794Z,92090.00
2024-04-18T04:52:32.784Z,92090.00
2024-04-18T04:53:32.803Z,92091.00
2024-04-18T04:54:32.828Z,92091.00
2024-04-18T04:55:32.846Z,92092.00
2024-04-18T04:56:32.863Z,92093.00
2024-04-18T04:57:33.073Z,92094.00
2024-04-18T04:58:32.903Z,92095.00
2024-04-18T04:59:33.679Z,92095.00
2024-04-18T05:00:32.968Z,92096.00
2024-04-18T05:01:33.050Z,92099.00
2024-04-18T05:02:33.039Z,92101.00
2024-04-18T05:03:33.078Z,92102.00
2024-04-18T05:04:33.042Z,92103.00
2024-04-18T05:05:33.065Z,92103.00
2024-04-18T05:06:33.099Z,92102.00
2024-04-18T05:07:33.205Z,92105.00
2024-04-18T05:08:33.110Z,92106.00
2024-04-18T05:09:33.245Z,92107.00
2024-04-18T05:10:33.146Z,92110.00
2024-04-18T05:11:33.200Z,92111.00
2024-04-18T05:12:33.716Z,92112.00
2024-04-18T05:13:33.196Z,92113.00
2024-04-18T05:14:33.204Z,92113.00
2024-04-18T05:15:33.241Z,92114.00
2024-04-18T05:16:33.322Z,92116.00
2024-04-18T05:17:33.276Z,92117.00
2024-04-18T05:18:33.367Z,92118.00
2024-04-18T05:19:33.307Z,92116.00
2024-04-18T05:20:33.501Z,92118.00
2024-04-18T05:21:33.470Z,92119.00
2024-04-18T05:22:33.513Z,92120.00
2024-04-18T05:23:33.424Z,92121.00
2024-04-18T05:24:33.538Z,92119.00
2024-04-18T05:25:33.470Z,92121.00
2024-04-18T05:26:33.670Z,92125.00
2024-04-18T05:27:34.228Z,92124.00
2024-04-18T05:28:33.691Z,92123.00
2024-04-18T05:29:33.790Z,92122.00
2024-04-18T05:30:33.935Z,92125.00
2024-04-18T05:31:33.957Z,92125.00
2024-04-18T05:32:34.086Z,92127.00
2024-04-18T05:33:34.218Z,92126.00
2024-04-18T05:34:34.156Z,92130.00
2024-04-18T05:35:34.227Z,92129.00
2024-04-18T05:36:34.416Z,92130.00
2024-04-18T05:37:34.364Z,92131.00
2024-04-18T05:38:34.428Z,92134.00
2024-04-18T05:39:34.512Z,92137.00
2024-04-18T05:40:34.567Z,92136.00
2024-04-18T05:41:34.654Z,92138.00
2024-04-18T05:42:34.761Z,92137.00
2024-04-18T05:43:35.538Z,92140.00
2024-04-18T05:44:34.854Z,92141.00
2024-04-18T05:45:34.939Z,92141.00
2024-04-18T05:46:35.013Z,92141.00
2024-04-18T05:47:35.176Z,92142.00
2024-04-18T05:48:35.171Z,92143.00
2024-04-18T05:49:35.224Z,92144.00
2024-04-18T05:50:38.002Z,92144.00
2024-04-18T05:51:36.153Z,92145.00
2024-04-18T05:52:35.403Z,92147.00
2024-04-18T05:53:35.354Z,92147.00
2024-04-18T05:54:35.457Z,92149.00
2024-04-18T05:55:35.375Z,92150.00
2024-04-18T05:56:35.397Z,92151.00
2024-04-18T05:57:35.442Z,92151.00
2024-04-18T05:58:35.498Z,92153.00
2024-04-18T05:59:35.438Z,92155.00
2024-04-18T06:00:35.481Z,92154.00
2024-04-18T06:01:35.756Z,92155.00
2024-04-18T06:02:35.510Z,92154.00
2024-04-18T06:03:35.534Z,92154.00
2024-04-18T06:04:35.586Z,92155.00
2024-04-18T06:05:35.528Z,92156.00
2024-04-18T06:06:35.792Z,92154.00
2024-04-18T06:07:35.558Z,92154.00
2024-04-18T06:08:35.574Z,92155.00
2024-04-18T06:09:35.679Z,92157.00
2024-04-18T06:10:35.604Z,92156.00
2024-04-18T06:11:35.656Z,92157.00
2024-04-18T06:12:35.672Z,92156.00
2024-04-18T06:13:35.630Z,92158.00
2024-04-18T06:14:35.676Z,92157.00
2024-04-18T06:15:36.738Z,92154.00
2024-04-18T06:16:35.853Z,92155.00
2024-04-18T06:17:35.913Z,92155.00
2024-04-18T06:18:36.074Z,92153.00
2024-04-18T06:19:36.066Z,92154.00
2024-04-18T06:20:36.135Z,92154.00
2024-04-18T06:21:36.252Z,92155.00
2024-04-18T06:22:36.305Z,92156.00
2024-04-18T06:23:36.373Z,92157.00
2024-04-18T06:24:37.224Z,92159.00
2024-04-18T06:25:36.538Z,92160.00
2024-04-18T06:26:36.632Z,92156.00
2024-04-18T06:27:36.818Z,92156.00
2024-04-18T06:28:36.781Z,92159.00
2024-04-18T06:29:36.852Z,92156.00
2024-04-18T06:30:36.946Z,92154.00
2024-04-18T06:31:37.005Z,92159.00
2024-04-18T06:32:37.043Z,92160.00
2024-04-18T06:33:37.226Z,92159.00
2024-04-18T06:34:37.214Z,92160.00
2024-04-18T06:35:37.177Z,92161.00
2024-04-18T06:36:37.158Z,92160.00
2024-04-18T06:37:37.140Z,92161.00
2024-04-18T06:38:37.163Z,92162.00
2024-04-18T06:39:37.230Z,92161.00
2024-04-18T06:40:37.267Z,92159.00
2024-04-18T06:41:37.219Z,92161.00
2024-04-18T06:42:37.320Z,92162.00
2024-04-18T06:43:37.391Z,92164.00
2024-04-18T06:44:37.424Z,92160.00
2024-04-18T06:45:37.466Z,92163.00
2024-04-18T06:46:45.237Z,92161.00
2024-04-18T06:47:38.504Z,92162.00
2024-04-18T06:48:37.551Z,92164.00
2024-04-18T06:49:37.475Z,92164.00
2024-04-18T06:50:37.468Z,92164.00
2024-04-18T06:51:37.501Z,92165.00
2024-04-18T06:52:37.541Z,92164.00
2024-04-18T06:53:37.557Z,92166.00
2024-04-18T06:54:37.539Z,92164.00
2024-04-18T06:55:37.519Z,92165.00
2024-04-18T06:56:37.527Z,92166.00
2024-04-18T06:57:37.610Z,92167.00
2024-04-18T06:58:37.600Z,92167.00
2024-04-18T06:59:37.661Z,92166.00
2024-04-18T07:00:37.835Z,92167.00
2024-04-18T07:01:37.807Z,92167.00
2024-04-18T07:02:37.796Z,92167.00
2024-04-18T07:03:37.931Z,92164.00
2024-04-18T07:04:37.952Z,92166.00
2024-04-18T07:05:37.937Z,92164.00
2024-04-18T07:06:37.975Z,92164.00
2024-04-18T07:07:37.966Z,92166.00
2024-04-18T07:08:38.065Z,92166.00
2024-04-18T07:09:38.128Z,92167.00
2024-04-18T07:10:38.120Z,92165.00
2024-04-18T07:11:38.087Z,92165.00
2024-04-18T07:12:38.114Z,92166.00
2024-04-18T07:13:38.122Z,92165.00
2024-04-18T07:14:38.149Z,92168.00
2024-04-18T07:15:38.198Z,92164.00
2024-04-18T07:16:38.233Z,92166.00
2024-04-18T07:17:38.360Z,92164.00
2024-04-18T07:18:38.445Z,92163.00
2024-04-18T07:19:38.421Z,92164.00
2024-04-18T07:20:39.241Z,92164.00
2024-04-18T07:21:38.517Z,92164.00
2024-04-18T07:22:39.236Z,92162.00
2024-04-18T07:23:38.574Z,92162.00
2024-04-18T07:24:38.658Z,92162.00
2024-04-18T07:25:38.673Z,92162.00
2024-04-18T07:26:38.757Z,92162.00
2024-04-18T07:27:38.891Z,92164.00
2024-04-18T07:28:38.907Z,92164.00
2024-04-18T07:29:39.002Z,92164.00
2024-04-18T07:30:39.064Z,92162.00
2024-04-18T07:31:39.105Z,92163.00
2024-04-18T07:32:39.191Z,92163.00
2024-04-18T07:33:39.397Z,92164.00
2024-04-18T07:34:39.305Z,92165.00
2024-04-18T07:35:39.383Z,92163.00
2024-04-18T07:36:39.511Z,92162.00
2024-04-18T07:37:39.604Z,92161.00
2024-04-18T07:38:39.683Z,92161.00
2024-04-18T07:39:39.788Z,92164.00
2024-04-18T07:40:39.806Z,92162.00
2024-04-18T07:41:39.883Z,92161.00
2024-04-18T07:42:40.022Z,92163.00
2024-04-18T07:43:39.995Z,92163.00
2024-04-18T07:44:40.038Z,92162.00
2024-04-18T07:45:40.192Z,92161.00
2024-04-18T07:46:40.235Z,92162.00
2024-04-18T07:47:40.460Z,92163.00
2024-04-18T07:48:40.462Z,92163.00
2024-04-18T07:49:43.417Z,92163.00
2024-04-18T07:50:40.542Z,92161.00
2024-04-18T07:51:40.644Z,92160.00
2024-04-18T07:52:42.885Z,92161.00
2024-04-18T07:53:41.650Z,92163.00
2024-04-18T07:54:40.725Z,92166.00
2024-04-18T07:55:40.719Z,92165.00
2024-04-18T07:56:41.409Z,92165.00
2024-04-18T07:57:41.387Z,92164.00
2024-04-18T07:58:41.293Z,92167.00
2024-04-18T07:59:41.590Z,92167.00
2024-04-18T08:00:42.246Z,92168.00
2024-04-18T08:01:42.482Z,92169.00
2024-04-18T08:02:42.435Z,92166.00
2024-04-18T08:03:48.189Z,92168.00
2024-04-18T08:05:44.019Z,92166.00
2024-04-18T08:06:43.866Z,92165.00
2024-04-18T08:07:43.967Z,92166.00
2024-04-18T08:08:44.214Z,92165.00
2024-04-18T08:09:44.204Z,92167.00
2024-04-18T08:10:53.214Z,92167.00
2024-04-18T08:12:45.659Z,92167.00
2024-04-18T08:13:45.527Z,92165.00
2024-04-18T08:16:41.854Z,92167.00
2024-04-18T08:17:41.906Z,92167.00
2024-04-18T08:18:41.750Z,92168.00
2024-04-18T08:19:41.799Z,92169.00
2024-04-18T08:20:41.821Z,92172.00
2024-04-18T08:21:41.864Z,92171.00
2024-04-18T08:22:41.886Z,92168.00
2024-04-18T08:23:41.911Z,92170.00
2024-04-18T08:24:41.943Z,92173.00
2024-04-18T08:25:42.091Z,92171.00
2024-04-18T08:26:42.052Z,92171.00
2024-04-18T08:27:42.070Z,92171.00
2024-04-18T08:28:42.043Z,92172.00
2024-04-18T08:29:42.103Z,92174.00
2024-04-18T08:30:43.815Z,92175.00
2024-04-18T08:31:42.134Z,92176.00
2024-04-18T08:32:44.238Z,92177.00
2024-04-18T08:33:46.782Z,92178.00
2024-04-18T08:34:45.137Z,92183.00
2024-04-18T08:35:42.209Z,92182.00
2024-04-18T08:36:42.205Z,92185.00
2024-04-18T08:37:42.219Z,92185.00
2024-04-18T08:38:42.276Z,92186.00
2024-04-18T08:39:42.768Z,92185.00
2024-04-18T08:40:42.277Z,92188.00
2024-04-18T08:41:44.172Z,92187.00
2024-04-18T08:42:42.337Z,92191.00
2024-04-18T08:43:45.089Z,92189.00
2024-04-18T08:44:42.329Z,92189.00
2024-04-18T08:45:42.474Z,92190.00
2024-04-18T08:46:42.371Z,92192.00
2024-04-18T08:47:42.526Z,92192.00
2024-04-18T08:48:42.518Z,92191.00
2024-04-18T08:49:42.434Z,92193.00
2024-04-18T08:50:42.520Z,92190.00
2024-04-18T08:51:42.490Z,92192.00
2024-04-18T08:52:42.484Z,92192.00
2024-04-18T08:53:42.498Z,92189.00
2024-04-18T08:54:42.734Z,92192.00
2024-04-18T08:55:42.588Z,92197.00
2024-04-18T08:56:43.216Z,92193.00
2024-04-18T08:57:42.596Z,92193.00
2024-04-18T08:58:42.682Z,92194.00
2024-04-18T08:59:42.627Z,92194.00
2024-04-18T09:00:42.704Z,92197.00
2024-04-18T09:01:42.662Z,92196.00
2024-04-18T09:02:42.700Z,92197.00
2024-04-18T09:03:42.697Z,92198.00
2024-04-18T09:04:42.762Z,92200.00
2024-04-18T09:05:42.871Z,92200.00
2024-04-18T09:06:42.876Z,92203.00
2024-04-18T09:07:42.918Z,92203.00
2024-04-18T09:08:42.986Z,92203.00
2024-04-18T09:09:43.042Z,92201.00
2024-04-18T09:10:43.145Z,92199.00
2024-04-18T09:11:43.189Z,92202.00
2024-04-18T09:12:43.304Z,92200.00
2024-04-18T09:13:45.209Z,92201.00
2024-04-18T09:14:43.417Z,92202.00
2024-04-18T09:15:43.429Z,92199.00
2024-04-18T09:16:43.488Z,92198.00
2024-04-18T09:17:43.599Z,92199.00
2024-04-18T09:18:43.765Z,92197.00
2024-04-18T09:19:43.691Z,92201.00
2024-04-18T09:20:43.780Z,92199.00
2024-04-18T09:22:43.940Z,92201.00
2024-04-18T09:23:44.010Z,92198.00
2024-04-18T09:24:44.094Z,92197.00
2024-04-18T09:25:45.816Z,92197.00
2024-04-18T09:26:44.157Z,92197.00
2024-04-18T09:27:44.169Z,92197.00
2024-04-18T09:28:44.196Z,92198.00
2024-04-18T09:29:44.215Z,92201.00
2024-04-18T09:30:44.846Z,92200.00
2024-04-18T09:31:44.251Z,92203.00
2024-04-18T09:32:44.336Z,92201.00
2024-04-18T09:33:44.415Z,92202.00
2024-04-18T09:34:44.297Z,92205.00
2024-04-18T09:35:44.358Z,92206.00
2024-04-18T09:36:44.483Z,92208.00
2024-04-18T09:37:50.026Z,92206.00
2024-04-18T09:38:45.393Z,92205.00
2024-04-18T09:39:44.425Z,92205.00
2024-04-18T09:40:44.425Z,92206.00
2024-04-18T09:41:44.444Z,92201.00
2024-04-18T09:42:44.417Z,92205.00
2024-04-18T09:43:44.376Z,92204.00
2024-04-18T09:44:44.430Z,92204.00
2024-04-18T09:45:44.475Z,92205.00
2024-04-18T09:46:44.447Z,92200.00
2024-04-18T09:47:44.915Z,92204.00
2024-04-18T09:48:44.679Z,92205.00
2024-04-18T09:49:45.305Z,92205.00
2024-04-18T09:50:44.575Z,92206.00
2024-04-18T09:51:44.622Z,92201.00
2024-04-18T09:52:44.688Z,92202.00
2024-04-18T09:53:45.302Z,92203.00
2024-04-18T09:54:44.940Z,92203.00
2024-04-18T09:55:46.759Z,92201.00
2024-04-18T09:56:44.982Z,92205.00
2024-04-18T09:57:45.060Z,92204.00
2024-04-18T09:58:45.743Z,92201.00
2024-04-18T09:59:45.140Z,92202.00
2024-04-18T10:00:46.853Z,92205.00
2024-04-18T10:01:46.159Z,92203.00
2024-04-18T10:02:45.139Z,92201.00
2024-04-18T10:03:45.180Z,92200.00
2024-04-18T10:04:45.135Z,92201.00
2024-04-18T10:05:45.128Z,92204.00
2024-04-18T10:06:45.161Z,92204.00
2024-04-18T10:07:47.328Z,92207.00
2024-04-18T10:08:47.858Z,92205.00
2024-04-18T10:09:45.213Z,92204.00
2024-04-18T10:10:45.209Z,92208.00
2024-04-18T10:11:45.223Z,92206.00
2024-04-18T10:12:45.259Z,92213.00
2024-04-18T10:13:45.188Z,92215.00
2024-04-18T10:14:45.204Z,92211.00
2024-04-18T10:15:45.299Z,92218.00
2024-04-18T10:16:45.220Z,92215.00
2024-04-18T10:17:45.259Z,92215.00
2024-04-18T10:18:45.342Z,92215.00
2024-04-18T10:19:45.236Z,92213.00
2024-04-18T10:20:45.255Z,92211.00
2024-04-18T10:22:47.791Z,92212.00
2024-04-18T10:23:45.287Z,92217.00
2024-04-18T10:24:45.879Z,92216.00
2024-04-18T10:25:45.288Z,92220.00
2024-04-18T10:26:45.309Z,92220.00
2024-04-18T10:27:45.313Z,92221.00
2024-04-18T10:28:45.329Z,92222.00
2024-04-18T10:29:45.323Z,92221.00
2024-04-18T10:30:45.333Z,92224.00
2024-04-18T10:31:45.342Z,92218.00
2024-04-18T10:32:45.388Z,92223.00
2024-04-18T10:33:45.571Z,92221.00
2024-04-18T10:34:45.383Z,92222.00
2024-04-18T10:35:45.382Z,92222.00
2024-04-18T10:36:45.524Z,92219.00
2024-04-18T10:37:45.413Z,92217.00
2024-04-18T10:38:45.407Z,92219.00
2024-04-18T10:39:45.569Z,92221.00
2024-04-18T10:40:45.515Z,92226.00
2024-04-18T10:41:45.466Z,92226.00
2024-04-18T10:42:45.521Z,92223.00
2024-04-18T10:43:45.462Z,92222.00
2024-04-18T10:44:46.320Z,92227.00
2024-04-18T10:45:45.560Z,92226.00
2024-04-18T10:46:45.493Z,92228.00
2024-04-18T10:47:45.690Z,92227.00
2024-04-18T10:48:45.682Z,92225.00
2024-04-18T10:49:45.536Z,92230.00
2024-04-18T10:50:45.539Z,92232.00
2024-04-18T10:51:45.565Z,92229.00
2024-04-18T10:52:45.542Z,92224.00
2024-04-18T10:53:45.589Z,92224.00
2024-04-18T10:54:45.583Z,92230.00
2024-04-18T10:55:45.595Z,92226.00
2024-04-18T10:56:45.590Z,92232.00
2024-04-18T10:57:45.593Z,92229.00
2024-04-18T10:58:45.607Z,92230.00
2024-04-18T10:59:45.625Z,92226.00
2024-04-18T11:00:45.775Z,92223.00
2024-04-18T11:01:45.656Z,92221.00
2024-04-18T11:02:45.643Z,92220.00
2024-04-18T11:03:45.739Z,92219.00
2024-04-18T11:04:45.664Z,92220.00
2024-04-18T11:05:45.777Z,92217.00
2024-04-18T11:06:45.749Z,92213.00
2024-04-18T11:07:45.702Z,92214.00
2024-04-18T11:08:45.708Z,92215.00
2024-04-18T11:09:45.773Z,92211.00
2024-04-18T11:10:45.779Z,92209.00
2024-04-18T11:11:45.733Z,92211.00
2024-04-18T11:12:45.750Z,92215.00
2024-04-18T11:13:45.756Z,92214.00
2024-04-18T11:14:45.769Z,92209.00
2024-04-18T11:15:45.862Z,92208.00
2024-04-18T11:16:47.305Z,92213.00
2024-04-18T11:17:45.852Z,92209.00
2024-04-18T11:18:46.938Z,92213.00
2024-04-18T11:19:45.880Z,92210.00
2024-04-18T11:20:45.812Z,92212.00
2024-04-18T11:21:46.819Z,92210.00
2024-04-18T11:22:53.453Z,92211.00
2024-04-18T11:23:50.102Z,92214.00
2024-04-18T11:24:45.955Z,92218.00
2024-04-18T11:25:45.873Z,92214.00
2024-04-18T11:26:45.867Z,92213.00
2024-04-18T11:27:45.904Z,92213.00
2024-04-18T11:28:46.852Z,92209.00
2024-04-18T11:29:45.896Z,92214.00
2024-04-18T11:30:45.964Z,92210.00
2024-04-18T11:31:45.962Z,92214.00
2024-04-18T11:32:46.944Z,92216.00
2024-04-18T11:33:45.959Z,92218.00
2024-04-18T11:34:47.144Z,92217.00
2024-04-18T11:35:45.986Z,92225.00
2024-04-18T11:36:46.036Z,92220.00
2024-04-18T11:37:46.029Z,92222.00
2024-04-18T11:38:46.047Z,92215.00
2024-04-18T11:39:46.117Z,92213.00
2024-04-18T11:40:46.185Z,92215.00
2024-04-18T11:41:46.174Z,92219.00
2024-04-18T11:42:46.210Z,92212.00
2024-04-18T11:43:47.173Z,92210.00
2024-04-18T11:44:47.155Z,92208.00
2024-04-18T11:45:46.257Z,92210.00
2024-04-18T11:46:46.189Z,92213.00
2024-04-18T11:47:46.418Z,92217.00
2024-04-18T11:48:46.396Z,92218.00
2024-04-18T11:49:46.183Z,92225.00
2024-04-18T11:50:46.312Z,92220.00